createdAt,value
2017-09-21T07:18:41.802Z,70.40
2017-09-21T07:21:08.161Z,70.30
2017-09-21T07:23:34.470Z,70.30
2017-09-21T07:26:01.011Z,69.90
2017-09-21T07:28:27.371Z,69.60
2017-09-21T07:30:53.714Z,68.80
2017-09-21T07:33:20.120Z,67.70
2017-09-21T07:35:46.451Z,67.10
2017-09-21T07:38:12.787Z,67.90
2017-09-21T07:40:39.139Z,68.40
2017-09-21T07:43:06.951Z,66.40
2017-09-21T07:45:33.252Z,66.50
2017-09-21T07:48:00.358Z,66.10
2017-09-21T07:50:26.710Z,66.10
2017-09-21T07:52:53.046Z,65.90
2017-09-21T07:55:19.393Z,65.10
2017-09-21T07:57:46.477Z,63.80
2017-09-21T08:00:12.793Z,63.80
2017-09-21T08:02:39.160Z,64.00
2017-09-21T08:05:05.571Z,63.90
2017-09-21T08:07:31.885Z,62.90
2017-09-21T08:09:58.235Z,63.10
2017-09-21T08:12:24.544Z,62.70
2017-09-21T08:14:50.870Z,63.30
2017-09-21T08:17:17.429Z,62.90
2017-09-21T08:19:43.751Z,61.30
2017-09-21T08:22:10.053Z,60.20
2017-09-21T08:24:37.157Z,59.10
2017-09-21T08:27:03.468Z,59.00
2017-09-21T08:29:29.785Z,59.30
2017-09-21T08:31:56.133Z,59.60
2017-09-21T08:34:22.446Z,59.20
2017-09-21T08:36:48.876Z,59.30
2017-09-21T08:39:15.223Z,59.50
2017-09-21T08:41:41.574Z,59.90
2017-09-21T08:44:07.946Z,60.10
2017-09-21T08:46:35.068Z,59.30
2017-09-21T08:49:01.407Z,59.10
2017-09-21T08:51:27.786Z,59.50
2017-09-21T08:53:54.093Z,58.40
2017-09-21T08:56:21.148Z,59.10
2017-09-21T08:58:48.242Z,58.70
2017-09-21T09:01:14.591Z,58.60
2017-09-21T09:03:40.943Z,58.90
2017-09-21T09:06:07.346Z,58.30
2017-09-21T09:08:33.670Z,59.70
2017-09-21T09:11:00.043Z,59.00
2017-09-21T09:13:26.497Z,57.50
2017-09-21T09:15:53.549Z,57.80
2017-09-21T09:18:19.917Z,57.80
2017-09-21T09:20:46.258Z,57.30
2017-09-21T09:23:12.584Z,57.30
2017-09-21T09:25:40.374Z,57.80
2017-09-21T09:28:06.727Z,57.00
2017-09-21T09:30:33.056Z,56.90
2017-09-21T09:33:00.169Z,57.20
2017-09-21T09:35:26.480Z,57.20
2017-09-21T09:37:52.784Z,57.90
2017-09-21T09:40:19.166Z,57.80
2017-09-21T09:42:45.472Z,58.10
2017-09-21T09:45:11.811Z,58.00
2017-09-21T09:47:38.179Z,57.90
2017-09-21T09:50:04.530Z,57.60
2017-09-21T09:52:31.579Z,58.00
2017-09-21T09:54:58.797Z,58.50
2017-09-21T09:57:25.902Z,59.00
2017-09-21T09:59:52.269Z,58.40
2017-09-21T10:02:18.615Z,57.50
2017-09-21T10:04:44.965Z,58.10
2017-09-21T10:07:12.021Z,58.00
2017-09-21T10:09:39.119Z,57.80
2017-09-21T10:12:05.492Z,57.80
2017-09-21T10:14:32.627Z,57.50
2017-09-21T10:16:58.927Z,57.50
2017-09-21T10:19:25.239Z,57.70
2017-09-21T10:21:51.679Z,57.00
2017-09-21T10:24:18.024Z,57.10
2017-09-21T10:26:44.410Z,56.80
2017-09-21T10:29:11.504Z,54.30
2017-09-21T10:31:37.865Z,54.30
2017-09-21T10:34:04.236Z,51.90
2017-09-21T10:36:30.595Z,50.90
2017-09-21T10:38:57.792Z,50.00
2017-09-21T10:41:24.850Z,49.10
2017-09-21T10:43:51.162Z,49.10
2017-09-21T10:46:18.243Z,49.00
2017-09-21T10:48:44.620Z,49.00
2017-09-21T10:51:12.460Z,50.20
2017-09-21T10:53:38.768Z,49.60
2017-09-21T10:56:05.069Z,50.10
2017-09-21T10:58:31.501Z,49.20
2017-09-21T11:00:58.583Z,48.70
2017-09-21T11:03:24.938Z,48.70
2017-09-21T11:05:51.244Z,48.60
2017-09-21T11:08:17.549Z,48.80
2017-09-21T11:10:44.648Z,47.70
2017-09-21T11:13:10.951Z,47.70
2017-09-21T11:15:37.256Z,48.70
2017-09-21T11:18:04.352Z,47.80
2017-09-21T11:20:30.658Z,47.80
2017-09-21T11:22:57.056Z,48.60
2017-09-21T11:25:23.370Z,47.00
2017-09-21T11:27:49.741Z,46.40
2017-09-21T11:30:16.876Z,46.50
2017-09-21T11:32:43.924Z,47.10
2017-09-21T11:35:11.005Z,46.80
2017-09-21T11:37:37.315Z,46.80
2017-09-21T11:40:04.420Z,47.00
2017-09-21T11:42:30.743Z,47.00
2017-09-21T11:44:57.246Z,46.80
2017-09-21T11:47:25.245Z,45.90
2017-09-21T11:49:51.599Z,44.90
2017-09-21T11:52:17.963Z,44.50
2017-09-21T11:54:45.054Z,42.70
2017-09-21T11:57:11.373Z,42.70
2017-09-21T11:59:37.710Z,42.40
2017-09-21T12:02:04.063Z,42.90
2017-09-21T12:04:30.358Z,43.00
2017-09-21T12:06:56.666Z,42.20
2017-09-21T12:09:23.043Z,42.50
2017-09-21T12:11:49.379Z,42.90
2017-09-21T12:14:15.699Z,42.40
2017-09-21T12:16:42.086Z,42.20
2017-09-21T12:19:09.209Z,42.50
2017-09-21T12:21:35.516Z,42.50
2017-09-21T12:24:01.904Z,40.30
2017-09-21T12:26:40.217Z,40.70
2017-09-21T12:39:17.168Z,40.70
2017-09-21T12:41:44.287Z,41.80
2017-09-21T12:44:10.596Z,41.80
2017-09-21T12:46:36.970Z,41.90
2017-09-21T12:49:04.017Z,42.70
2017-09-21T12:51:31.063Z,42.10
2017-09-21T12:53:58.195Z,41.80
2017-09-21T12:56:24.507Z,41.80
2017-09-21T12:58:50.809Z,41.80
2017-09-21T13:01:17.175Z,41.30
2017-09-21T13:03:43.509Z,41.70
2017-09-21T13:06:09.812Z,42.40
2017-09-21T13:08:36.155Z,42.80
2017-09-21T13:11:02.472Z,42.30
2017-09-21T13:13:28.827Z,42.80
2017-09-21T13:15:55.155Z,42.40
2017-09-21T13:18:21.523Z,41.70
2017-09-21T13:20:48.622Z,42.20
2017-09-21T13:23:14.985Z,42.10
2017-09-21T13:25:41.340Z,42.60
2017-09-21T13:28:08.397Z,40.80
2017-09-21T13:30:34.709Z,40.80
2017-09-21T13:33:02.046Z,40.00
2017-09-21T13:35:28.354Z,40.00
2017-09-21T13:37:54.710Z,40.80
2017-09-21T13:40:21.019Z,42.30
2017-09-21T13:42:47.406Z,42.60
2017-09-21T13:45:13.719Z,42.40
2017-09-21T13:47:40.813Z,42.20
2017-09-21T13:50:07.179Z,42.20
2017-09-21T13:52:33.486Z,41.90
2017-09-21T13:54:59.814Z,42.30
2017-09-21T13:57:26.510Z,43.20
2017-09-21T13:59:52.876Z,42.90
2017-09-21T14:02:19.677Z,43.40
2017-09-21T14:04:47.621Z,43.90
2017-09-21T14:07:15.919Z,43.70
2017-09-21T14:09:43.938Z,42.80
2017-09-21T14:12:10.307Z,42.70
2017-09-21T14:14:36.673Z,42.20
2017-09-21T14:17:02.976Z,42.00
2017-09-21T14:19:30.039Z,42.60
2017-09-21T14:21:57.215Z,43.20
2017-09-21T14:24:23.513Z,43.20
2017-09-21T14:26:50.563Z,43.90
2017-09-21T14:29:17.715Z,43.70
2017-09-21T14:31:44.754Z,43.10
2017-09-21T14:34:11.804Z,43.10
2017-09-21T14:36:38.901Z,43.40
2017-09-21T14:39:05.260Z,43.40
2017-09-21T14:41:31.580Z,43.50
2017-09-21T14:43:57.992Z,43.60
2017-09-21T14:46:24.373Z,43.40
2017-09-21T14:48:50.704Z,42.30
2017-09-21T14:51:17.067Z,43.20
2017-09-21T14:53:43.356Z,43.00
2017-09-21T14:56:09.695Z,42.00
2017-09-21T14:58:36.876Z,42.30
2017-09-21T15:01:03.176Z,42.30
2017-09-21T15:03:29.504Z,42.60
2017-09-21T15:05:55.856Z,42.90
2017-09-21T15:08:22.906Z,43.30
2017-09-21T15:10:49.998Z,43.70
2017-09-21T15:13:16.353Z,43.60
2017-09-21T15:15:42.655Z,43.90
2017-09-21T15:18:08.955Z,43.20
2017-09-21T15:20:35.328Z,43.20
2017-09-21T15:23:01.674Z,43.30
2017-09-21T15:25:28.033Z,43.10
2017-09-21T15:27:55.301Z,43.60
2017-09-21T15:30:21.707Z,43.60
2017-09-21T15:32:48.117Z,43.10
2017-09-21T15:35:14.463Z,43.60
2017-09-21T15:37:40.883Z,43.50
2017-09-21T15:40:07.299Z,43.70
2017-09-21T15:42:33.643Z,44.20
2017-09-21T15:44:59.943Z,44.00
2017-09-21T15:47:26.311Z,44.20
2017-09-21T15:49:52.620Z,44.70
2017-09-21T15:52:18.923Z,44.60
2017-09-21T15:54:45.351Z,44.70
2017-09-21T15:57:11.751Z,45.10
2017-09-21T15:59:38.068Z,45.40
2017-09-21T16:02:04.440Z,45.10
2017-09-21T16:04:31.624Z,46.10
2017-09-21T16:06:57.987Z,46.10
2017-09-21T16:09:24.289Z,46.10
2017-09-21T16:11:50.639Z,45.90
2017-09-21T16:14:17.003Z,45.80
2017-09-21T16:16:44.065Z,45.60
2017-09-21T16:19:11.320Z,45.90
2017-09-21T16:21:37.657Z,45.80
2017-09-21T16:24:04.007Z,46.00
2017-09-21T16:26:30.397Z,46.30
2017-09-21T16:28:57.838Z,46.90
2017-09-21T16:31:25.060Z,47.30
2017-09-21T16:33:51.895Z,47.30
2017-09-21T16:36:18.581Z,47.30
2017-09-21T16:38:45.171Z,47.50
2017-09-21T16:41:11.525Z,48.30
2017-09-21T16:43:37.981Z,48.10
2017-09-21T16:46:04.318Z,48.40
2017-09-21T16:48:31.367Z,48.00
2017-09-21T16:50:58.464Z,48.90
2017-09-21T16:53:24.787Z,48.90
2017-09-21T16:55:51.196Z,49.60
2017-09-21T16:58:17.774Z,49.70
2017-09-21T17:00:44.147Z,49.50
2017-09-21T17:03:11.208Z,49.20
2017-09-21T17:05:39.617Z,50.10
2017-09-21T17:08:06.079Z,50.00
2017-09-21T17:10:32.408Z,49.80
2017-09-21T17:12:59.326Z,50.20
2017-09-21T17:15:25.699Z,50.50
2017-09-21T17:17:52.076Z,50.50
2017-09-21T17:20:18.469Z,50.60
2017-09-21T17:22:45.562Z,50.90
2017-09-21T17:25:11.966Z,50.90
2017-09-21T17:27:39.066Z,51.40
2017-09-21T17:30:05.494Z,51.40
2017-09-21T17:32:31.880Z,51.90
2017-09-21T17:34:58.947Z,52.40
2017-09-21T17:37:25.382Z,52.40
2017-09-21T17:39:51.760Z,52.70
2017-09-21T17:42:18.787Z,52.70
2017-09-21T17:44:45.948Z,52.70
2017-09-21T17:47:12.256Z,52.60
2017-09-21T17:49:38.676Z,52.60
2017-09-21T17:52:04.995Z,52.80
2017-09-21T17:54:32.097Z,53.00
2017-09-21T17:56:58.424Z,53.00
2017-09-21T17:59:24.835Z,53.30
2017-09-21T18:01:51.255Z,53.40
2017-09-21T18:04:17.572Z,53.50
2017-09-21T18:06:44.816Z,53.40
2017-09-21T18:09:11.940Z,53.60
2017-09-21T18:11:38.331Z,53.60
2017-09-21T18:14:04.694Z,53.70
2017-09-21T18:16:31.039Z,53.60
2017-09-21T18:18:57.400Z,53.70
2017-09-21T18:21:24.561Z,53.80
2017-09-21T18:23:51.615Z,53.80
2017-09-21T18:26:18.002Z,53.80
2017-09-21T18:28:44.316Z,53.90
2017-09-21T18:31:10.672Z,54.10
2017-09-21T18:33:38.534Z,54.10
2017-09-21T18:36:04.908Z,54.10
2017-09-21T18:38:31.299Z,54.10
2017-09-21T18:40:57.804Z,54.10
2017-09-21T18:43:24.161Z,54.20
2017-09-21T18:45:50.492Z,54.60
2017-09-21T18:48:16.849Z,54.40
2017-09-21T18:50:44.011Z,54.90
2017-09-21T18:53:11.183Z,55.00
2017-09-21T18:55:37.546Z,55.00
2017-09-21T18:58:04.014Z,55.50
2017-09-21T19:00:31.107Z,56.00
2017-09-21T19:02:57.468Z,56.00
2017-09-21T19:05:23.927Z,56.00
2017-09-21T19:07:50.297Z,56.00
2017-09-21T19:10:16.712Z,56.30
2017-09-21T19:12:44.102Z,56.10
2017-09-21T19:15:10.470Z,56.10
2017-09-21T19:17:38.421Z,55.80
2017-09-21T19:20:04.837Z,55.70
2017-09-21T19:22:31.188Z,55.70
2017-09-21T19:24:57.553Z,55.80
2017-09-21T19:27:24.670Z,56.90
2017-09-21T19:29:51.064Z,56.30
2017-09-21T19:32:17.370Z,56.40
2017-09-21T19:34:44.419Z,56.50
2017-09-21T19:37:11.600Z,56.50
2017-09-21T19:39:38.157Z,56.60
2017-09-21T19:42:04.722Z,56.70
2017-09-21T19:44:31.192Z,56.70
2017-09-21T19:46:57.503Z,56.90
2017-09-21T19:49:24.616Z,57.10
2017-09-21T19:51:51.576Z,57.00
2017-09-21T19:54:17.959Z,57.10
2017-09-21T19:56:44.514Z,56.90
2017-09-21T19:59:10.859Z,57.10
2017-09-21T20:01:37.232Z,57.00
2017-09-21T20:04:04.359Z,57.30
2017-09-21T20:06:30.755Z,57.30
2017-09-21T20:08:57.208Z,57.40
2017-09-21T20:11:23.527Z,57.40
2017-09-21T20:13:49.970Z,57.50
2017-09-21T20:16:16.331Z,57.60
2017-09-21T20:18:42.903Z,57.70
2017-09-21T20:21:09.430Z,57.50
2017-09-21T20:23:36.597Z,57.70
2017-09-21T20:26:04.035Z,57.70
2017-09-21T20:28:31.178Z,57.70
2017-09-21T20:30:58.749Z,57.70
2017-09-21T20:33:25.446Z,57.60
2017-09-21T20:35:51.930Z,57.60
2017-09-21T20:38:18.757Z,57.80
2017-09-21T20:40:46.227Z,57.70
2017-09-21T20:43:13.589Z,57.80
2017-09-21T20:45:40.481Z,57.80
2017-09-21T20:48:06.799Z,57.90
2017-09-21T20:50:33.164Z,58.10
2017-09-21T20:53:00.225Z,58.00
2017-09-21T20:55:27.351Z,57.80
2017-09-21T20:57:53.813Z,57.80
2017-09-21T21:00:20.381Z,57.90
2017-09-21T21:02:46.699Z,57.90
2017-09-21T21:05:13.062Z,57.70
2017-09-21T21:07:39.359Z,57.60
2017-09-21T21:10:05.664Z,57.90
2017-09-21T21:12:32.766Z,57.90
2017-09-21T21:14:59.106Z,57.90
2017-09-21T21:17:25.421Z,57.80
2017-09-21T21:19:51.763Z,57.90
2017-09-21T21:22:18.068Z,58.10
2017-09-21T21:24:44.456Z,58.10
2017-09-21T21:27:11.587Z,58.20
2017-09-21T21:29:37.897Z,58.20
2017-09-21T21:32:04.223Z,58.10
2017-09-21T21:34:30.568Z,58.30
2017-09-21T21:36:56.866Z,58.30
2017-09-21T21:39:23.255Z,58.50
2017-09-21T21:41:49.559Z,58.50
2017-09-21T21:44:15.872Z,58.50
2017-09-21T21:46:42.225Z,58.50
2017-09-21T21:49:09.271Z,58.60
2017-09-21T21:51:35.579Z,58.90
2017-09-21T21:54:01.944Z,58.50
2017-09-21T21:56:28.266Z,58.70
2017-09-21T21:58:54.565Z,58.60
2017-09-21T22:01:20.983Z,58.60
2017-09-21T22:03:47.292Z,58.60
2017-09-21T22:06:14.400Z,58.70
2017-09-21T22:08:40.714Z,58.60
2017-09-21T22:11:07.025Z,58.70
2017-09-21T22:13:33.376Z,58.60
2017-09-21T22:15:59.695Z,58.60
2017-09-21T22:18:26.011Z,58.50
2017-09-21T22:20:52.370Z,58.40
2017-09-21T22:23:18.687Z,58.60
2017-09-21T22:25:45.031Z,58.40
2017-09-21T22:28:11.334Z,58.50
2017-09-21T22:30:37.697Z,58.60
2017-09-21T22:33:03.987Z,58.60
2017-09-21T22:35:31.082Z,58.60
2017-09-21T22:37:57.388Z,58.60
2017-09-21T22:40:23.687Z,58.50
2017-09-21T22:42:50.764Z,58.80
2017-09-21T22:45:18.174Z,58.70
2017-09-21T22:47:44.471Z,58.60
2017-09-21T22:50:10.812Z,58.70
2017-09-21T22:52:37.150Z,59.00
2017-09-21T22:55:03.517Z,59.10
2017-09-21T22:57:30.587Z,59.00
2017-09-21T22:59:56.972Z,59.00
2017-09-21T23:02:23.289Z,58.90
2017-09-21T23:04:49.615Z,58.90
2017-09-21T23:07:15.946Z,58.70
2017-09-21T23:09:42.286Z,58.60
2017-09-21T23:12:08.612Z,58.60
2017-09-21T23:14:34.985Z,58.70
2017-09-21T23:17:02.036Z,58.70
2017-09-21T23:19:29.083Z,59.00
2017-09-21T23:21:56.192Z,59.10
2017-09-21T23:24:22.491Z,59.10
2017-09-21T23:26:48.796Z,59.00
2017-09-21T23:29:15.883Z,59.00
2017-09-21T23:31:42.205Z,59.00
2017-09-21T23:34:08.564Z,58.90
2017-09-21T23:36:34.870Z,58.90
2017-09-21T23:39:01.181Z,58.90
2017-09-21T23:41:27.515Z,59.10
2017-09-21T23:43:53.850Z,59.00
2017-09-21T23:46:20.191Z,59.10
2017-09-21T23:48:46.487Z,58.80
2017-09-21T23:51:13.544Z,59.20
2017-09-21T23:53:39.894Z,59.20
2017-09-21T23:56:06.220Z,59.20
2017-09-21T23:58:32.612Z,59.20
